sensor_id;sensor_type;location;lat;lon;timestamp;P1;durP1;ratioP1;P2;durP2;ratioP2
19519;SDS011;9904;52.246;20.898;2023-02-28T00:02:23;30.90;;;12.27;;
19519;SDS011;9904;52.246;20.898;2023-02-28T00:04:50;37.60;;;13.07;;
19519;SDS011;9904;52.246;20.898;2023-02-28T00:07:19;31.03;;;12.00;;
19519;SDS011;9904;52.246;20.898;2023-02-28T00:09:45;31.10;;;11.47;;
19519;SDS011;9904;52.246;20.898;2023-02-28T00:12:12;32.67;;;11.57;;
19519;SDS011;9904;52.246;20.898;2023-02-28T00:14:38;29.80;;;11.93;;
19519;SDS011;9904;52.246;20.898;2023-02-28T00:17:05;29.70;;;11.20;;
19519;SDS011;9904;52.246;20.898;2023-02-28T00:19:31;29.33;;;11.33;;
19519;SDS011;9904;52.246;20.898;2023-02-28T00:21:58;30.70;;;11.13;;
19519;SDS011;9904;52.246;20.898;2023-02-28T00:24:24;30.87;;;12.10;;
19519;SDS011;9904;52.246;20.898;2023-02-28T00:26:51;31.27;;;11.70;;
19519;SDS011;9904;52.246;20.898;2023-02-28T00:29:18;31.60;;;12.47;;
19519;SDS011;9904;52.246;20.898;2023-02-28T00:31:44;31.83;;;12.23;;
19519;SDS011;9904;52.246;20.898;2023-02-28T00:34:11;31.00;;;11.40;;
19519;SDS011;9904;52.246;20.898;2023-02-28T00:36:37;31.77;;;12.13;;
19519;SDS011;9904;52.246;20.898;2023-02-28T00:39:04;25.23;;;10.60;;
19519;SDS011;9904;52.246;20.898;2023-02-28T00:41:30;26.73;;;10.73;;
19519;SDS011;9904;52.246;20.898;2023-02-28T00:43:57;30.03;;;11.60;;
19519;SDS011;9904;52.246;20.898;2023-02-28T00:46:24;36.77;;;11.77;;
19519;SDS011;9904;52.246;20.898;2023-02-28T00:48:50;31.87;;;11.73;;
19519;SDS011;9904;52.246;20.898;2023-02-28T00:51:17;32.07;;;11.63;;
19519;SDS011;9904;52.246;20.898;2023-02-28T00:53:44;28.07;;;11.73;;
19519;SDS011;9904;52.246;20.898;2023-02-28T00:56:10;28.43;;;12.27;;
19519;SDS011;9904;52.246;20.898;2023-02-28T00:58:37;30.60;;;12.63;;
19519;SDS011;9904;52.246;20.898;2023-02-28T01:01:03;27.87;;;11.43;;
19519;SDS011;9904;52.246;20.898;2023-02-28T01:03:30;22.57;;;10.50;;
19519;SDS011;9904;52.246;20.898;2023-02-28T01:05:57;26.23;;;10.50;;
19519;SDS011;9904;52.246;20.898;2023-02-28T01:08:24;29.80;;;10.40;;
19519;SDS011;9904;52.246;20.898;2023-02-28T01:10:52;28.97;;;11.20;;
19519;SDS011;9904;52.246;20.898;2023-02-28T01:13:19;27.93;;;11.40;;
19519;SDS011;9904;52.246;20.898;2023-02-28T01:15:50;26.43;;;11.40;;
19519;SDS011;9904;52.246;20.898;2023-02-28T01:18:19;32.40;;;11.90;;
19519;SDS011;9904;52.246;20.898;2023-02-28T01:20:46;27.60;;;10.97;;
19519;SDS011;9904;52.246;20.898;2023-02-28T01:23:12;30.17;;;11.47;;
19519;SDS011;9904;52.246;20.898;2023-02-28T01:25:39;31.40;;;12.10;;
19519;SDS011;9904;52.246;20.898;2023-02-28T01:28:06;29.10;;;11.27;;
19519;SDS011;9904;52.246;20.898;2023-02-28T01:30:32;30.23;;;11.67;;
19519;SDS011;9904;52.246;20.898;2023-02-28T01:32:59;27.67;;;12.17;;
19519;SDS011;9904;52.246;20.898;2023-02-28T01:35:26;32.60;;;11.77;;
19519;SDS011;9904;52.246;20.898;2023-02-28T01:37:52;28.57;;;10.97;;
19519;SDS011;9904;52.246;20.898;2023-02-28T01:40:19;29.67;;;11.43;;
19519;SDS011;9904;52.246;20.898;2023-02-28T01:42:46;30.63;;;11.80;;
19519;SDS011;9904;52.246;20.898;2023-02-28T01:45:22;35.63;;;10.93;;
19519;SDS011;9904;52.246;20.898;2023-02-28T01:47:53;29.53;;;12.97;;
19519;SDS011;9904;52.246;20.898;2023-02-28T01:50:23;31.07;;;13.03;;
19519;SDS011;9904;52.246;20.898;2023-02-28T01:52:52;30.57;;;11.93;;
19519;SDS011;9904;52.246;20.898;2023-02-28T01:55:21;28.83;;;11.07;;
19519;SDS011;9904;52.246;20.898;2023-02-28T01:57:50;35.20;;;12.43;;
19519;SDS011;9904;52.246;20.898;2023-02-28T02:00:20;27.83;;;11.80;;
19519;SDS011;9904;52.246;20.898;2023-02-28T02:02:51;35.23;;;11.40;;
19519;SDS011;9904;52.246;20.898;2023-02-28T02:05:22;36.17;;;12.43;;
19519;SDS011;9904;52.246;20.898;2023-02-28T02:07:57;29.27;;;12.10;;
19519;SDS011;9904;52.246;20.898;2023-02-28T02:10:32;34.30;;;11.93;;
19519;SDS011;9904;52.246;20.898;2023-02-28T02:13:50;35.13;;;12.73;;
19519;SDS011;9904;52.246;20.898;2023-02-28T02:18:40;36.27;;;13.00;;
19519;SDS011;9904;52.246;20.898;2023-02-28T02:23:43;35.73;;;13.17;;
19519;SDS011;9904;52.246;20.898;2023-02-28T02:37:09;34.93;;;14.23;;
19519;SDS011;9904;52.246;20.898;2023-02-28T02:39:48;33.80;;;14.37;;
19519;SDS011;9904;52.246;20.898;2023-02-28T02:42:23;34.17;;;14.17;;
19519;SDS011;9904;52.246;20.898;2023-02-28T02:44:58;39.23;;;14.63;;
19519;SDS011;9904;52.246;20.898;2023-02-28T02:47:29;42.73;;;15.67;;
19519;SDS011;9904;52.246;20.898;2023-02-28T02:49:57;38.13;;;14.23;;
19519;SDS011;9904;52.246;20.898;2023-02-28T02:52:29;42.90;;;15.00;;
19519;SDS011;9904;52.246;20.898;2023-02-28T02:55:00;40.03;;;14.70;;
19519;SDS011;9904;52.246;20.898;2023-02-28T02:57:40;42.93;;;15.00;;
19519;SDS011;9904;52.246;20.898;2023-02-28T03:00:11;38.73;;;15.17;;
19519;SDS011;9904;52.246;20.898;2023-02-28T03:02:38;44.20;;;15.73;;
19519;SDS011;9904;52.246;20.898;2023-02-28T03:05:07;43.43;;;14.60;;
19519;SDS011;9904;52.246;20.898;2023-02-28T03:07:35;37.27;;;15.33;;
19519;SDS011;9904;52.246;20.898;2023-02-28T03:10:02;35.63;;;14.57;;
19519;SDS011;9904;52.246;20.898;2023-02-28T03:12:32;40.07;;;15.60;;
19519;SDS011;9904;52.246;20.898;2023-02-28T03:15:18;46.20;;;16.23;;
19519;SDS011;9904;52.246;20.898;2023-02-28T03:23:23;51.13;;;16.43;;
19519;SDS011;9904;52.246;20.898;2023-02-28T03:25:59;48.60;;;17.47;;
19519;SDS011;9904;52.246;20.898;2023-02-28T03:28:33;39.47;;;15.10;;
19519;SDS011;9904;52.246;20.898;2023-02-28T03:31:06;46.80;;;17.33;;
19519;SDS011;9904;52.246;20.898;2023-02-28T03:33:38;38.50;;;15.63;;
19519;SDS011;9904;52.246;20.898;2023-02-28T03:36:12;42.93;;;16.03;;
19519;SDS011;9904;52.246;20.898;2023-02-28T03:38:44;40.53;;;15.80;;
19519;SDS011;9904;52.246;20.898;2023-02-28T03:41:22;45.30;;;16.73;;
19519;SDS011;9904;52.246;20.898;2023-02-28T03:43:55;42.90;;;15.97;;
19519;SDS011;9904;52.246;20.898;2023-02-28T03:46:43;43.07;;;15.27;;
19519;SDS011;9904;52.246;20.898;2023-02-28T03:49:16;39.73;;;14.87;;
19519;SDS011;9904;52.246;20.898;2023-02-28T03:51:44;41.10;;;14.93;;
19519;SDS011;9904;52.246;20.898;2023-02-28T03:54:16;45.17;;;14.63;;
19519;SDS011;9904;52.246;20.898;2023-02-28T03:56:51;40.30;;;15.70;;
19519;SDS011;9904;52.246;20.898;2023-02-28T03:59:25;44.77;;;16.63;;
19519;SDS011;9904;52.246;20.898;2023-02-28T04:01:54;45.33;;;16.60;;
19519;SDS011;9904;52.246;20.898;2023-02-28T04:04:24;39.23;;;15.60;;
19519;SDS011;9904;52.246;20.898;2023-02-28T04:06:51;46.53;;;16.57;;
19519;SDS011;9904;52.246;20.898;2023-02-28T04:09:18;41.07;;;16.07;;
19519;SDS011;9904;52.246;20.898;2023-02-28T04:11:45;38.83;;;14.67;;
19519;SDS011;9904;52.246;20.898;2023-02-28T04:14:17;36.77;;;13.17;;
19519;SDS011;9904;52.246;20.898;2023-02-28T04:16:44;40.60;;;15.67;;
19519;SDS011;9904;52.246;20.898;2023-02-28T04:19:12;35.77;;;14.00;;
19519;SDS011;9904;52.246;20.898;2023-02-28T04:21:57;41.73;;;15.23;;
19519;SDS011;9904;52.246;20.898;2023-02-28T04:24:24;43.53;;;15.57;;
19519;SDS011;9904;52.246;20.898;2023-02-28T04:26:53;43.80;;;15.90;;
19519;SDS011;9904;52.246;20.898;2023-02-28T04:29:25;37.90;;;15.60;;
19519;SDS011;9904;52.246;20.898;2023-02-28T04:31:53;43.60;;;14.47;;
19519;SDS011;9904;52.246;20.898;2023-02-28T04:34:21;43.93;;;14.10;;
19519;SDS011;9904;52.246;20.898;2023-02-28T04:36:47;48.87;;;16.43;;
19519;SDS011;9904;52.246;20.898;2023-02-28T04:39:36;53.50;;;17.37;;
19519;SDS011;9904;52.246;20.898;2023-02-28T04:42:03;45.17;;;16.93;;
19519;SDS011;9904;52.246;20.898;2023-02-28T04:44:30;46.50;;;16.37;;
19519;SDS011;9904;52.246;20.898;2023-02-28T04:46:57;49.87;;;18.13;;
19519;SDS011;9904;52.246;20.898;2023-02-28T04:49:24;50.03;;;17.37;;
19519;SDS011;9904;52.246;20.898;2023-02-28T04:51:51;62.87;;;23.80;;
19519;SDS011;9904;52.246;20.898;2023-02-28T04:54:19;62.80;;;24.57;;
19519;SDS011;9904;52.246;20.898;2023-02-28T04:56:45;46.93;;;17.97;;
19519;SDS011;9904;52.246;20.898;2023-02-28T04:59:12;46.83;;;16.27;;
19519;SDS011;9904;52.246;20.898;2023-02-28T05:01:38;47.97;;;16.63;;
19519;SDS011;9904;52.246;20.898;2023-02-28T05:04:05;45.97;;;17.40;;
19519;SDS011;9904;52.246;20.898;2023-02-28T05:06:32;42.90;;;16.10;;
19519;SDS011;9904;52.246;20.898;2023-02-28T05:08:59;53.50;;;17.73;;
19519;SDS011;9904;52.246;20.898;2023-02-28T05:11:27;41.90;;;16.23;;
19519;SDS011;9904;52.246;20.898;2023-02-28T05:13:56;44.60;;;15.93;;
19519;SDS011;9904;52.246;20.898;2023-02-28T05:16:22;43.77;;;15.90;;
19519;SDS011;9904;52.246;20.898;2023-02-28T05:18:49;41.90;;;17.53;;
19519;SDS011;9904;52.246;20.898;2023-02-28T05:21:23;45.77;;;15.33;;
19519;SDS011;9904;52.246;20.898;2023-02-28T05:23:53;52.47;;;17.53;;
19519;SDS011;9904;52.246;20.898;2023-02-28T05:26:19;48.33;;;17.13;;
19519;SDS011;9904;52.246;20.898;2023-02-28T05:28:46;55.57;;;17.97;;
19519;SDS011;9904;52.246;20.898;2023-02-28T05:31:13;42.27;;;17.57;;
19519;SDS011;9904;52.246;20.898;2023-02-28T05:33:39;47.17;;;17.60;;
19519;SDS011;9904;52.246;20.898;2023-02-28T05:36:06;44.90;;;18.07;;
19519;SDS011;9904;52.246;20.898;2023-02-28T05:38:33;49.30;;;18.40;;
19519;SDS011;9904;52.246;20.898;2023-02-28T05:41:06;44.33;;;16.77;;
19519;SDS011;9904;52.246;20.898;2023-02-28T05:43:33;50.83;;;17.50;;
19519;SDS011;9904;52.246;20.898;2023-02-28T05:46:04;46.77;;;17.87;;
19519;SDS011;9904;52.246;20.898;2023-02-28T05:48:36;47.30;;;17.57;;
19519;SDS011;9904;52.246;20.898;2023-02-28T05:51:04;45.73;;;16.23;;
19519;SDS011;9904;52.246;20.898;2023-02-28T05:53:31;42.47;;;16.80;;
19519;SDS011;9904;52.246;20.898;2023-02-28T05:55:58;48.27;;;17.77;;
19519;SDS011;9904;52.246;20.898;2023-02-28T05:58:25;47.90;;;18.57;;
19519;SDS011;9904;52.246;20.898;2023-02-28T06:00:57;44.43;;;17.40;;
19519;SDS011;9904;52.246;20.898;2023-02-28T06:03:24;47.53;;;18.70;;
19519;SDS011;9904;52.246;20.898;2023-02-28T06:05:51;46.00;;;19.10;;
19519;SDS011;9904;52.246;20.898;2023-02-28T06:08:18;43.97;;;16.40;;
19519;SDS011;9904;52.246;20.898;2023-02-28T06:10:44;49.87;;;17.20;;
19519;SDS011;9904;52.246;20.898;2023-02-28T06:13:11;45.53;;;17.73;;
19519;SDS011;9904;52.246;20.898;2023-02-28T06:15:39;46.93;;;16.80;;
19519;SDS011;9904;52.246;20.898;2023-02-28T06:18:05;45.40;;;19.00;;
19519;SDS011;9904;52.246;20.898;2023-02-28T06:20:32;45.83;;;18.70;;
19519;SDS011;9904;52.246;20.898;2023-02-28T06:22:59;46.20;;;17.33;;
19519;SDS011;9904;52.246;20.898;2023-02-28T06:25:27;47.70;;;17.03;;
19519;SDS011;9904;52.246;20.898;2023-02-28T06:27:54;49.00;;;18.57;;
19519;SDS011;9904;52.246;20.898;2023-02-28T06:30:22;48.40;;;17.87;;
19519;SDS011;9904;52.246;20.898;2023-02-28T06:32:53;51.73;;;18.77;;
19519;SDS011;9904;52.246;20.898;2023-02-28T06:35:22;54.03;;;18.60;;
19519;SDS011;9904;52.246;20.898;2023-02-28T06:37:49;49.17;;;17.67;;
19519;SDS011;9904;52.246;20.898;2023-02-28T06:40:16;45.63;;;16.33;;
19519;SDS011;9904;52.246;20.898;2023-02-28T06:42:43;52.00;;;16.57;;
19519;SDS011;9904;52.246;20.898;2023-02-28T06:45:16;46.17;;;16.73;;
19519;SDS011;9904;52.246;20.898;2023-02-28T06:47:42;45.43;;;15.97;;
19519;SDS011;9904;52.246;20.898;2023-02-28T06:50:10;46.80;;;15.93;;
19519;SDS011;9904;52.246;20.898;2023-02-28T06:52:38;43.33;;;15.47;;
19519;SDS011;9904;52.246;20.898;2023-02-28T06:55:06;37.53;;;15.63;;
19519;SDS011;9904;52.246;20.898;2023-02-28T06:57:34;39.80;;;13.70;;
19519;SDS011;9904;52.246;20.898;2023-02-28T07:00:03;33.33;;;13.00;;
19519;SDS011;9904;52.246;20.898;2023-02-28T07:02:36;32.47;;;12.80;;
19519;SDS011;9904;52.246;20.898;2023-02-28T07:05:05;31.03;;;11.30;;
19519;SDS011;9904;52.246;20.898;2023-02-28T07:07:32;27.27;;;10.00;;
19519;SDS011;9904;52.246;20.898;2023-02-28T07:09:59;31.53;;;10.57;;
19519;SDS011;9904;52.246;20.898;2023-02-28T07:12:26;29.47;;;10.93;;
19519;SDS011;9904;52.246;20.898;2023-02-28T07:14:52;30.23;;;9.90;;
19519;SDS011;9904;52.246;20.898;2023-02-28T07:17:22;29.73;;;9.80;;
19519;SDS011;9904;52.246;20.898;2023-02-28T07:19:49;23.17;;;9.47;;
19519;SDS011;9904;52.246;20.898;2023-02-28T07:22:15;19.57;;;8.47;;
19519;SDS011;9904;52.246;20.898;2023-02-28T07:24:42;23.67;;;8.40;;
19519;SDS011;9904;52.246;20.898;2023-02-28T07:27:09;22.27;;;8.17;;
19519;SDS011;9904;52.246;20.898;2023-02-28T07:29:35;18.33;;;8.10;;
19519;SDS011;9904;52.246;20.898;2023-02-28T07:32:03;19.07;;;7.50;;
19519;SDS011;9904;52.246;20.898;2023-02-28T07:34:30;13.87;;;6.80;;
19519;SDS011;9904;52.246;20.898;2023-02-28T07:36:57;17.70;;;6.57;;
19519;SDS011;9904;52.246;20.898;2023-02-28T07:39:23;17.53;;;6.50;;
19519;SDS011;9904;52.246;20.898;2023-02-28T07:41:50;15.73;;;6.53;;
19519;SDS011;9904;52.246;20.898;2023-02-28T07:44:17;15.00;;;5.90;;
19519;SDS011;9904;52.246;20.898;2023-02-28T07:46:43;13.00;;;5.87;;
19519;SDS011;9904;52.246;20.898;2023-02-28T07:49:10;12.73;;;4.83;;
19519;SDS011;9904;52.246;20.898;2023-02-28T07:51:37;12.20;;;5.40;;
19519;SDS011;9904;52.246;20.898;2023-02-28T07:54:04;14.23;;;5.17;;
19519;SDS011;9904;52.246;20.898;2023-02-28T07:56:35;10.83;;;5.13;;
19519;SDS011;9904;52.246;20.898;2023-02-28T07:59:01;16.87;;;5.57;;
19519;SDS011;9904;52.246;20.898;2023-02-28T08:01:28;12.30;;;4.50;;
19519;SDS011;9904;52.246;20.898;2023-02-28T08:03:56;10.07;;;4.10;;
19519;SDS011;9904;52.246;20.898;2023-02-28T08:06:23;10.93;;;4.20;;
19519;SDS011;9904;52.246;20.898;2023-02-28T08:08:50;7.23;;;4.03;;
19519;SDS011;9904;52.246;20.898;2023-02-28T08:11:17;10.67;;;4.67;;
19519;SDS011;9904;52.246;20.898;2023-02-28T08:13:45;10.40;;;4.63;;
19519;SDS011;9904;52.246;20.898;2023-02-28T08:16:12;8.37;;;4.93;;
19519;SDS011;9904;52.246;20.898;2023-02-28T08:18:49;10.67;;;4.90;;
19519;SDS011;9904;52.246;20.898;2023-02-28T08:21:16;11.40;;;5.10;;
19519;SDS011;9904;52.246;20.898;2023-02-28T08:23:43;8.73;;;4.77;;
19519;SDS011;9904;52.246;20.898;2023-02-28T08:26:10;13.50;;;5.90;;
19519;SDS011;9904;52.246;20.898;2023-02-28T08:28:37;17.57;;;5.80;;
19519;SDS011;9904;52.246;20.898;2023-02-28T08:31:08;12.43;;;5.57;;
19519;SDS011;9904;52.246;20.898;2023-02-28T08:33:37;12.93;;;5.90;;
19519;SDS011;9904;52.246;20.898;2023-02-28T08:36:06;12.00;;;5.90;;
19519;SDS011;9904;52.246;20.898;2023-02-28T08:38:34;13.37;;;6.00;;
19519;SDS011;9904;52.246;20.898;2023-02-28T08:41:03;12.30;;;6.43;;
19519;SDS011;9904;52.246;20.898;2023-02-28T08:43:35;12.93;;;6.13;;
19519;SDS011;9904;52.246;20.898;2023-02-28T08:46:02;12.87;;;6.57;;
19519;SDS011;9904;52.246;20.898;2023-02-28T08:48:30;15.07;;;6.30;;
19519;SDS011;9904;52.246;20.898;2023-02-28T08:50:59;15.80;;;7.43;;
19519;SDS011;9904;52.246;20.898;2023-02-28T08:53:34;13.30;;;6.73;;
19519;SDS011;9904;52.246;20.898;2023-02-28T08:56:06;16.70;;;6.53;;
19519;SDS011;9904;52.246;20.898;2023-02-28T08:58:35;16.17;;;6.77;;
19519;SDS011;9904;52.246;20.898;2023-02-28T09:03:35;17.27;;;5.93;;
19519;SDS011;9904;52.246;20.898;2023-02-28T09:06:02;11.20;;;6.00;;
19519;SDS011;9904;52.246;20.898;2023-02-28T09:08:30;13.33;;;6.10;;
19519;SDS011;9904;52.246;20.898;2023-02-28T09:10:58;11.93;;;5.90;;
19519;SDS011;9904;52.246;20.898;2023-02-28T09:13:28;13.17;;;6.63;;
19519;SDS011;9904;52.246;20.898;2023-02-28T09:15:58;11.40;;;6.23;;
19519;SDS011;9904;52.246;20.898;2023-02-28T09:18:27;13.60;;;5.63;;
19519;SDS011;9904;52.246;20.898;2023-02-28T09:20:53;15.87;;;6.00;;
19519;SDS011;9904;52.246;20.898;2023-02-28T09:23:23;16.80;;;5.90;;
19519;SDS011;9904;52.246;20.898;2023-02-28T09:25:51;17.37;;;5.93;;
19519;SDS011;9904;52.246;20.898;2023-02-28T09:28:19;11.77;;;6.10;;
19519;SDS011;9904;52.246;20.898;2023-02-28T09:30:47;13.17;;;5.77;;
19519;SDS011;9904;52.246;20.898;2023-02-28T09:33:14;16.87;;;6.70;;
19519;SDS011;9904;52.246;20.898;2023-02-28T09:35:42;16.20;;;6.50;;
19519;SDS011;9904;52.246;20.898;2023-02-28T09:38:09;13.43;;;6.70;;
19519;SDS011;9904;52.246;20.898;2023-02-28T09:40:37;15.67;;;7.27;;
19519;SDS011;9904;52.246;20.898;2023-02-28T09:43:15;12.80;;;6.20;;
19519;SDS011;9904;52.246;20.898;2023-02-28T09:45:46;14.90;;;6.43;;
19519;SDS011;9904;52.246;20.898;2023-02-28T09:48:20;12.60;;;6.33;;
19519;SDS011;9904;52.246;20.898;2023-02-28T09:50:49;16.43;;;7.57;;
19519;SDS011;9904;52.246;20.898;2023-02-28T09:53:26;17.53;;;7.00;;
19519;SDS011;9904;52.246;20.898;2023-02-28T09:56:04;14.33;;;6.60;;
19519;SDS011;9904;52.246;20.898;2023-02-28T09:58:37;18.43;;;7.03;;
19519;SDS011;9904;52.246;20.898;2023-02-28T10:01:21;14.00;;;6.50;;
19519;SDS011;9904;52.246;20.898;2023-02-28T10:06:51;19.97;;;6.90;;
19519;SDS011;9904;52.246;20.898;2023-02-28T10:09:21;20.87;;;7.93;;
19519;SDS011;9904;52.246;20.898;2023-02-28T10:11:54;13.93;;;6.80;;
19519;SDS011;9904;52.246;20.898;2023-02-28T10:14:26;14.13;;;6.80;;
19519;SDS011;9904;52.246;20.898;2023-02-28T10:17:11;12.83;;;7.10;;
19519;SDS011;9904;52.246;20.898;2023-02-28T10:22:22;16.63;;;6.73;;
19519;SDS011;9904;52.246;20.898;2023-02-28T10:24:56;14.23;;;6.90;;
19519;SDS011;9904;52.246;20.898;2023-02-28T10:27:31;15.30;;;6.53;;
19519;SDS011;9904;52.246;20.898;2023-02-28T10:29:59;14.43;;;6.30;;
19519;SDS011;9904;52.246;20.898;2023-02-28T10:32:33;15.90;;;6.83;;
19519;SDS011;9904;52.246;20.898;2023-02-28T10:35:09;14.87;;;6.83;;
19519;SDS011;9904;52.246;20.898;2023-02-28T10:37:37;14.07;;;6.60;;
19519;SDS011;9904;52.246;20.898;2023-02-28T10:40:29;17.53;;;6.40;;
19519;SDS011;9904;52.246;20.898;2023-02-28T10:43:19;16.40;;;6.93;;
19519;SDS011;9904;52.246;20.898;2023-02-28T10:48:42;19.53;;;7.30;;
19519;SDS011;9904;52.246;20.898;2023-02-28T10:51:15;17.90;;;8.23;;
19519;SDS011;9904;52.246;20.898;2023-02-28T10:56:25;20.63;;;7.07;;
19519;SDS011;9904;52.246;20.898;2023-02-28T11:01:33;18.57;;;7.67;;
19519;SDS011;9904;52.246;20.898;2023-02-28T11:04:16;17.50;;;7.67;;
19519;SDS011;9904;52.246;20.898;2023-02-28T11:07:19;22.07;;;7.60;;
19519;SDS011;9904;52.246;20.898;2023-02-28T11:09:51;13.17;;;7.60;;
19519;SDS011;9904;52.246;20.898;2023-02-28T11:14:53;16.87;;;7.97;;
19519;SDS011;9904;52.246;20.898;2023-02-28T11:17:29;17.70;;;8.40;;
19519;SDS011;9904;52.246;20.898;2023-02-28T11:19:59;15.90;;;7.43;;
19519;SDS011;9904;52.246;20.898;2023-02-28T11:22:43;17.67;;;7.83;;
19519;SDS011;9904;52.246;20.898;2023-02-28T11:25:16;17.37;;;8.00;;
19519;SDS011;9904;52.246;20.898;2023-02-28T11:27:51;18.27;;;7.87;;
19519;SDS011;9904;52.246;20.898;2023-02-28T11:30:23;17.53;;;7.70;;
19519;SDS011;9904;52.246;20.898;2023-02-28T11:32:50;20.90;;;8.00;;
19519;SDS011;9904;52.246;20.898;2023-02-28T11:35:18;14.63;;;7.50;;
19519;SDS011;9904;52.246;20.898;2023-02-28T11:37:49;18.37;;;8.57;;
19519;SDS011;9904;52.246;20.898;2023-02-28T11:40:17;19.57;;;7.67;;
19519;SDS011;9904;52.246;20.898;2023-02-28T11:42:48;20.73;;;8.73;;
19519;SDS011;9904;52.246;20.898;2023-02-28T11:48:15;15.03;;;7.67;;
19519;SDS011;9904;52.246;20.898;2023-02-28T12:01:38;19.37;;;7.97;;
19519;SDS011;9904;52.246;20.898;2023-02-28T12:06:57;15.97;;;8.13;;
19519;SDS011;9904;52.246;20.898;2023-02-28T12:12:15;24.17;;;8.63;;
19519;SDS011;9904;52.246;20.898;2023-02-28T12:17:38;16.03;;;7.53;;
19519;SDS011;9904;52.246;20.898;2023-02-28T12:20:13;17.87;;;8.17;;
19519;SDS011;9904;52.246;20.898;2023-02-28T12:27:56;17.30;;;8.93;;
19519;SDS011;9904;52.246;20.898;2023-02-28T12:30:30;19.13;;;8.20;;
19519;SDS011;9904;52.246;20.898;2023-02-28T12:33:08;18.43;;;8.23;;
19519;SDS011;9904;52.246;20.898;2023-02-28T12:38:25;19.77;;;8.80;;
19519;SDS011;9904;52.246;20.898;2023-02-28T12:41:03;15.23;;;8.40;;
19519;SDS011;9904;52.246;20.898;2023-02-28T12:43:36;20.57;;;8.70;;
19519;SDS011;9904;52.246;20.898;2023-02-28T12:46:21;17.50;;;8.17;;
19519;SDS011;9904;52.246;20.898;2023-02-28T12:48:52;16.87;;;8.10;;
19519;SDS011;9904;52.246;20.898;2023-02-28T12:51:23;16.37;;;8.63;;
19519;SDS011;9904;52.246;20.898;2023-02-28T12:53:59;16.30;;;8.23;;
19519;SDS011;9904;52.246;20.898;2023-02-28T13:07:42;15.17;;;7.80;;
19519;SDS011;9904;52.246;20.898;2023-02-28T13:10:47;14.73;;;7.63;;
19519;SDS011;9904;52.246;20.898;2023-02-28T13:13:23;16.47;;;8.30;;
19519;SDS011;9904;52.246;20.898;2023-02-28T13:16:06;20.00;;;9.03;;
19519;SDS011;9904;52.246;20.898;2023-02-28T13:18:37;18.83;;;7.73;;
19519;SDS011;9904;52.246;20.898;2023-02-28T13:21:24;15.57;;;7.13;;
19519;SDS011;9904;52.246;20.898;2023-02-28T13:23:59;18.27;;;8.30;;
19519;SDS011;9904;52.246;20.898;2023-02-28T13:28:58;14.97;;;7.47;;
19519;SDS011;9904;52.246;20.898;2023-02-28T13:31:27;18.70;;;7.33;;
19519;SDS011;9904;52.246;20.898;2023-02-28T13:36:25;17.73;;;7.73;;
19519;SDS011;9904;52.246;20.898;2023-02-28T13:38:59;14.70;;;6.80;;
19519;SDS011;9904;52.246;20.898;2023-02-28T13:44:06;14.63;;;6.47;;
19519;SDS011;9904;52.246;20.898;2023-02-28T13:47:13;17.23;;;7.03;;
19519;SDS011;9904;52.246;20.898;2023-02-28T14:05:23;15.33;;;7.87;;
19519;SDS011;9904;52.246;20.898;2023-02-28T14:07:54;19.63;;;8.00;;
19519;SDS011;9904;52.246;20.898;2023-02-28T14:13:37;17.57;;;7.80;;
19519;SDS011;9904;52.246;20.898;2023-02-28T14:16:13;17.87;;;8.17;;
19519;SDS011;9904;52.246;20.898;2023-02-28T14:18:42;14.87;;;7.47;;
19519;SDS011;9904;52.246;20.898;2023-02-28T14:29:38;26.57;;;7.70;;
19519;SDS011;9904;52.246;20.898;2023-02-28T14:32:40;16.30;;;7.73;;
19519;SDS011;9904;52.246;20.898;2023-02-28T14:38:27;16.07;;;7.50;;
19519;SDS011;9904;52.246;20.898;2023-02-28T14:40:58;15.80;;;7.23;;
19519;SDS011;9904;52.246;20.898;2023-02-28T14:43:27;13.27;;;7.03;;
19519;SDS011;9904;52.246;20.898;2023-02-28T14:45:55;16.03;;;7.90;;
19519;SDS011;9904;52.246;20.898;2023-02-28T22:00:52;154.37;;;49.30;;
19519;SDS011;9904;52.246;20.898;2023-02-28T22:03:18;148.53;;;51.17;;
19519;SDS011;9904;52.246;20.898;2023-02-28T22:05:45;136.60;;;49.30;;
19519;SDS011;9904;52.246;20.898;2023-02-28T22:08:11;141.27;;;50.87;;
19519;SDS011;9904;52.246;20.898;2023-02-28T22:10:38;138.87;;;49.50;;
19519;SDS011;9904;52.246;20.898;2023-02-28T22:13:05;146.50;;;53.17;;
19519;SDS011;9904;52.246;20.898;2023-02-28T22:15:35;134.03;;;49.30;;
19519;SDS011;9904;52.246;20.898;2023-02-28T22:18:02;149.53;;;51.87;;
19519;SDS011;9904;52.246;20.898;2023-02-28T22:20:29;140.17;;;50.10;;
19519;SDS011;9904;52.246;20.898;2023-02-28T22:22:56;146.30;;;50.13;;
19519;SDS011;9904;52.246;20.898;2023-02-28T22:25:23;140.63;;;48.97;;
19519;SDS011;9904;52.246;20.898;2023-02-28T22:27:50;158.70;;;51.60;;
19519;SDS011;9904;52.246;20.898;2023-02-28T22:30:16;148.20;;;50.70;;
19519;SDS011;9904;52.246;20.898;2023-02-28T22:32:43;159.90;;;52.10;;
19519;SDS011;9904;52.246;20.898;2023-02-28T22:35:09;170.70;;;55.00;;
19519;SDS011;9904;52.246;20.898;2023-02-28T22:37:36;153.63;;;51.80;;
19519;SDS011;9904;52.246;20.898;2023-02-28T22:40:03;143.50;;;49.53;;
19519;SDS011;9904;52.246;20.898;2023-02-28T22:42:33;134.70;;;50.00;;
19519;SDS011;9904;52.246;20.898;2023-02-28T22:44:59;145.87;;;49.67;;
19519;SDS011;9904;52.246;20.898;2023-02-28T22:47:26;146.73;;;49.30;;
19519;SDS011;9904;52.246;20.898;2023-02-28T22:49:52;142.03;;;47.87;;
19519;SDS011;9904;52.246;20.898;2023-02-28T22:52:19;128.90;;;44.70;;
19519;SDS011;9904;52.246;20.898;2023-02-28T22:54:48;131.37;;;45.23;;
19519;SDS011;9904;52.246;20.898;2023-02-28T22:57:15;139.83;;;45.70;;
19519;SDS011;9904;52.246;20.898;2023-02-28T22:59:41;137.83;;;45.17;;
19519;SDS011;9904;52.246;20.898;2023-02-28T23:02:08;119.07;;;43.50;;
19519;SDS011;9904;52.246;20.898;2023-02-28T23:04:34;120.70;;;42.90;;
19519;SDS011;9904;52.246;20.898;2023-02-28T23:07:01;126.77;;;43.80;;
19519;SDS011;9904;52.246;20.898;2023-02-28T23:09:27;123.67;;;45.57;;
19519;SDS011;9904;52.246;20.898;2023-02-28T23:11:54;134.40;;;44.03;;
19519;SDS011;9904;52.246;20.898;2023-02-28T23:14:21;114.63;;;42.17;;
19519;SDS011;9904;52.246;20.898;2023-02-28T23:16:49;116.13;;;42.03;;
19519;SDS011;9904;52.246;20.898;2023-02-28T23:19:24;120.50;;;40.73;;
19519;SDS011;9904;52.246;20.898;2023-02-28T23:21:57;106.90;;;39.33;;
19519;SDS011;9904;52.246;20.898;2023-02-28T23:24:25;115.40;;;41.40;;
19519;SDS011;9904;52.246;20.898;2023-02-28T23:26:54;111.77;;;40.13;;
19519;SDS011;9904;52.246;20.898;2023-02-28T23:29:22;113.47;;;43.47;;
19519;SDS011;9904;52.246;20.898;2023-02-28T23:31:50;118.90;;;41.63;;
19519;SDS011;9904;52.246;20.898;2023-02-28T23:34:17;122.13;;;43.40;;
19519;SDS011;9904;52.246;20.898;2023-02-28T23:36:51;121.57;;;41.83;;
19519;SDS011;9904;52.246;20.898;2023-02-28T23:39:19;128.23;;;44.00;;
19519;SDS011;9904;52.246;20.898;2023-02-28T23:41:46;125.67;;;43.07;;
19519;SDS011;9904;52.246;20.898;2023-02-28T23:44:13;124.53;;;42.17;;
19519;SDS011;9904;52.246;20.898;2023-02-28T23:46:43;119.60;;;42.03;;
19519;SDS011;9904;52.246;20.898;2023-02-28T23:49:10;131.60;;;44.83;;
19519;SDS011;9904;52.246;20.898;2023-02-28T23:51:37;135.43;;;47.07;;
19519;SDS011;9904;52.246;20.898;2023-02-28T23:54:03;151.07;;;51.00;;
19519;SDS011;9904;52.246;20.898;2023-02-28T23:56:30;147.10;;;48.80;;